Time;durP1;ratioP1;P1;durP2;ratioP2;P2;SDS_P1;SDS_P2;PMS_P1;PMS_P2;Temp;Humidity;BMP_temperature;BMP_pressure;BME280_temperature;BME280_humidity;BME280_pressure;Samples;Min_cycle;Max_cycle;Signal;HPM_P1;HPM_P2
2023/07/31 00:00:22;;;;;;;3.80;2.40;;;;;;;16.56;84.83;96305.23;107867;1284;22760;-76
2023/07/31 00:03:13;;;;;;;5.00;2.30;;;;;;;16.48;85.05;96303.00;107877;1284;24365;-75
2023/07/31 00:05:44;;;;;;;4.20;2.60;;;;;;;16.40;85.27;96301.90;107898;1281;22531;-75
2023/07/31 00:08:15;;;;;;;3.00;2.70;;;;;;;16.32;85.47;96302.70;107862;1284;22521;-76
2023/07/31 00:10:46;;;;;;;2.70;2.30;;;;;;;16.26;85.68;96299.64;107886;1284;25296;-76
2023/07/31 00:13:17;;;;;;;2.80;2.30;;;;;;;16.24;85.97;96298.98;107871;1277;22527;-75
2023/07/31 00:15:48;;;;;;;4.10;2.80;;;;;;;16.18;86.06;96297.69;107874;1284;25337;-75
2023/07/31 00:18:19;;;;;;;3.30;2.30;;;;;;;16.15;86.38;96296.88;107865;1284;23168;-75
2023/07/31 00:20:50;;;;;;;3.00;2.40;;;;;;;16.11;86.48;96297.39;107848;1284;22654;-75
2023/07/31 00:23:21;;;;;;;3.80;2.60;;;;;;;16.08;86.76;96300.64;107887;1284;25446;-76
2023/07/31 00:25:52;;;;;;;3.90;2.30;;;;;;;16.06;86.88;96303.79;107890;1277;22541;-73
2023/07/31 00:28:23;;;;;;;4.10;3.20;;;;;;;16.03;86.92;96305.11;107879;1284;22571;-73
2023/07/31 00:30:54;;;;;;;4.10;3.20;;;;;;;16.00;87.22;96308.80;107866;1284;23540;-74
2023/07/31 00:33:25;;;;;;;6.10;2.70;;;;;;;15.99;87.48;96310.38;107890;1284;22550;-74
2023/07/31 00:35:56;;;;;;;4.50;2.50;;;;;;;15.99;87.60;96306.54;107878;1277;22527;-74
2023/07/31 00:38:27;;;;;;;4.60;2.60;;;;;;;15.98;87.82;96310.18;107890;1284;22574;-73
2023/07/31 00:40:58;;;;;;;3.80;2.70;;;;;;;16.00;87.93;96311.56;107851;1277;22663;-73
2023/07/31 00:43:29;;;;;;;3.90;3.10;;;;;;;16.02;88.11;96307.65;107889;1283;22595;-73
2023/07/31 00:46:01;;;;;;;5.20;2.90;;;;;;;16.03;88.38;96308.56;107890;1284;22567;-74
2023/07/31 00:48:33;;;;;;;3.40;2.30;;;;;;;16.08;88.60;96306.36;107908;1284;22539;-74
2023/07/31 00:51:04;;;;;;;3.10;2.50;;;;;;;16.12;88.69;96306.15;107856;1277;22595;-75
2023/07/31 00:53:36;;;;;;;3.90;2.60;;;;;;;16.17;88.74;96308.39;107889;1284;22528;-75
2023/07/31 00:56:08;;;;;;;4.50;2.50;;;;;;;16.18;88.58;96310.90;107939;1280;22555;-75
2023/07/31 00:58:40;;;;;;;3.50;2.80;;;;;;;16.17;88.44;96306.27;107856;1284;22627;-76
2023/07/31 01:01:11;;;;;;;2.80;2.20;;;;;;;16.18;88.54;96306.46;107943;1284;24285;-75
2023/07/31 01:03:44;;;;;;;4.20;2.70;;;;;;;16.18;88.41;96305.23;107899;1284;24295;-75
2023/07/31 01:06:23;;;;;;;3.40;2.30;;;;;;;16.16;88.47;96305.84;107868;1284;22525;-75
2023/07/31 01:09:00;;;;;;;4.50;2.50;;;;;;;16.16;88.62;96304.48;107881;1284;22562;-75
2023/07/31 01:11:34;;;;;;;4.50;2.40;;;;;;;16.19;88.73;96303.46;107851;1284;24368;-75
2023/07/31 01:14:06;;;;;;;3.10;2.00;;;;;;;16.20;88.66;96302.98;107905;1276;22528;-75
2023/07/31 01:16:37;;;;;;;3.40;2.60;;;;;;;16.20;88.67;96309.31;107882;1284;23883;-75
2023/07/31 01:19:10;;;;;;;3.10;2.40;;;;;;;16.19;88.68;96307.73;107823;1277;23955;-75
2023/07/31 01:22:18;;;;;;;5.00;2.40;;;;;;;16.19;88.80;96311.69;107890;1277;22550;-75
2023/07/31 01:25:02;;;;;;;4.00;2.50;;;;;;;16.22;88.84;96313.23;107951;1277;22652;-75
2023/07/31 01:27:45;;;;;;;3.50;2.60;;;;;;;16.27;89.00;96315.61;107873;1281;27530;-75
2023/07/31 01:30:22;;;;;;;3.40;2.50;;;;;;;16.34;89.07;96314.52;107870;1277;22543;-75
2023/07/31 01:32:55;;;;;;;4.60;2.70;;;;;;;16.40;89.02;96320.56;107880;1284;24205;-75
2023/07/31 01:35:27;;;;;;;2.50;2.10;;;;;;;16.45;89.02;96323.65;107860;1277;22557;-76
2023/07/31 01:37:58;;;;;;;2.50;2.30;;;;;;;16.48;88.94;96320.91;107891;1283;25435;-75
2023/07/31 01:40:29;;;;;;;2.50;2.20;;;;;;;16.52;88.86;96323.20;107851;1284;22553;-75
2023/07/31 01:43:00;;;;;;;2.70;2.40;;;;;;;16.56;88.83;96323.25;107880;1284;22530;-75
2023/07/31 01:45:30;;;;;;;3.90;2.30;;;;;;;16.59;88.73;96323.36;107853;1284;26476;-75
2023/07/31 01:48:01;;;;;;;2.40;2.20;;;;;;;16.63;88.72;96325.15;107859;1284;22546;-75
2023/07/31 01:50:32;;;;;;;2.50;2.30;;;;;;;16.67;88.66;96324.13;107845;1284;22561;-76
2023/07/31 01:53:03;;;;;;;3.40;2.10;;;;;;;16.70;88.66;96321.83;107869;1284;22539;-75
2023/07/31 01:55:34;;;;;;;3.30;2.30;;;;;;;16.73;88.66;96322.48;107862;1284;22573;-75
2023/07/31 01:58:05;;;;;;;3.20;2.30;;;;;;;16.76;88.56;96326.67;107849;1277;22533;-75
2023/07/31 02:00:36;;;;;;;2.70;2.20;;;;;;;16.80;88.54;96329.70;107852;1284;22549;-75
2023/07/31 02:03:07;;;;;;;2.30;1.90;;;;;;;16.82;88.41;96327.42;107848;1277;26573;-75
2023/07/31 02:05:44;;;;;;;3.90;2.40;;;;;;;16.84;88.42;96328.73;107879;1277;22543;-75
2023/07/31 02:08:16;;;;;;;4.80;2.00;;;;;;;16.86;88.43;96327.79;107864;1277;22571;-75
2023/07/31 02:10:47;;;;;;;2.90;2.10;;;;;;;16.87;88.18;96325.23;107829;1284;22558;-75
2023/07/31 02:13:18;;;;;;;3.30;2.20;;;;;;;16.85;88.10;96325.38;107854;1284;24333;-75
2023/07/31 02:15:50;;;;;;;2.60;2.30;;;;;;;16.84;88.16;96326.11;107852;1284;22538;-75
2023/07/31 02:18:22;;;;;;;2.30;2.10;;;;;;;16.84;88.21;96323.13;107862;1280;23013;-75
2023/07/31 02:20:53;;;;;;;2.30;1.90;;;;;;;16.86;88.33;96322.82;107790;1280;22553;-75
2023/07/31 02:23:24;;;;;;;2.90;2.00;;;;;;;16.87;88.30;96328.00;107863;1284;25366;-75
2023/07/31 02:25:55;;;;;;;2.30;1.90;;;;;;;16.89;88.29;96331.69;107851;1283;22538;-75
2023/07/31 02:28:26;;;;;;;3.40;2.00;;;;;;;16.92;88.26;96334.17;107759;1284;22562;-75
2023/07/31 02:30:57;;;;;;;2.70;1.90;;;;;;;16.95;88.36;96330.05;107800;1284;24168;-75
2023/07/31 02:33:28;;;;;;;3.10;2.40;;;;;;;16.97;88.30;96334.50;107816;1284;22578;-75
2023/07/31 02:35:59;;;;;;;4.60;2.10;;;;;;;16.98;88.30;96336.22;107847;1277;22520;-75
2023/07/31 02:38:30;;;;;;;2.60;2.20;;;;;;;17.00;88.35;96337.88;107813;1284;22538;-75
2023/07/31 02:41:01;;;;;;;2.70;2.20;;;;;;;17.00;88.40;96342.17;107856;1284;22539;-75
2023/07/31 02:43:32;;;;;;;3.50;2.00;;;;;;;17.00;88.43;96342.48;107804;1277;22558;-75
2023/07/31 02:46:03;;;;;;;2.60;2.10;;;;;;;17.01;88.55;96341.96;107825;1277;22585;-75
2023/07/31 02:48:34;;;;;;;3.40;2.20;;;;;;;17.03;88.68;96339.05;107852;1277;22534;-75
2023/07/31 02:51:06;;;;;;;3.10;2.10;;;;;;;17.04;88.73;96345.81;107872;1284;22530;-75
2023/07/31 02:53:37;;;;;;;4.20;2.00;;;;;;;17.07;88.76;96352.09;107840;1277;22572;-75
2023/07/31 02:56:08;;;;;;;2.30;2.10;;;;;;;17.09;88.77;96352.31;107872;1284;25429;-75
2023/07/31 02:58:39;;;;;;;2.50;2.30;;;;;;;17.11;88.79;96353.53;107825;1284;23019;-75
2023/07/31 03:01:10;;;;;;;3.00;2.10;;;;;;;17.13;88.70;96347.94;107871;1277;22531;-75
2023/07/31 03:03:43;;;;;;;2.90;2.40;;;;;;;17.16;88.74;96355.63;107858;1277;22539;-75
2023/07/31 03:06:13;;;;;;;2.70;2.20;;;;;;;17.17;88.62;96357.42;107859;1277;23344;-75
2023/07/31 03:08:44;;;;;;;4.10;2.40;;;;;;;17.17;88.42;96356.39;107861;1277;22573;-75
2023/07/31 03:11:15;;;;;;;2.70;2.10;;;;;;;17.17;88.31;96353.02;107865;1284;24322;-75
2023/07/31 03:13:46;;;;;;;2.80;1.90;;;;;;;17.18;88.15;96356.55;107857;1284;22672;-74
2023/07/31 03:16:17;;;;;;;2.10;1.90;;;;;;;17.15;88.03;96357.12;107832;1284;25591;-75
2023/07/31 03:18:48;;;;;;;2.50;1.90;;;;;;;17.12;87.79;96357.80;107829;1281;24249;-75
2023/07/31 03:21:19;;;;;;;2.30;1.80;;;;;;;17.09;87.55;96353.70;107845;1280;22761;-75
2023/07/31 03:23:50;;;;;;;2.30;1.40;;;;;;;17.06;87.41;96359.88;107813;1284;22585;-75
2023/07/31 03:26:21;;;;;;;2.10;1.60;;;;;;;17.04;87.22;96357.96;107863;1278;22538;-75
2023/07/31 03:28:52;;;;;;;2.60;1.90;;;;;;;17.01;87.03;96363.04;107818;1276;22585;-75
2023/07/31 03:31:23;;;;;;;2.00;1.80;;;;;;;17.01;86.78;96362.48;107846;1277;22560;-75
2023/07/31 03:33:54;;;;;;;2.40;1.60;;;;;;;16.99;86.62;96356.23;107848;1284;25426;-75
2023/07/31 03:36:25;;;;;;;2.70;1.90;;;;;;;16.97;86.46;96356.37;107870;1277;25448;-75
2023/07/31 03:38:57;;;;;;;1.90;1.70;;;;;;;16.94;86.38;96363.55;107883;1284;22538;-75
2023/07/31 03:41:28;;;;;;;1.80;1.50;;;;;;;16.93;86.35;96365.64;107871;1277;22656;-75
2023/07/31 03:43:59;;;;;;;2.10;1.60;;;;;;;16.90;86.18;96360.92;107851;1284;22517;-74
2023/07/31 03:46:30;;;;;;;1.60;1.50;;;;;;;16.88;86.20;96363.44;107860;1277;24236;-75
2023/07/31 03:49:01;;;;;;;1.50;1.40;;;;;;;16.88;86.15;96364.61;107853;1284;22529;-75
2023/07/31 03:51:32;;;;;;;1.50;1.30;;;;;;;16.88;86.06;96365.36;107842;1277;22559;-75
2023/07/31 03:54:03;;;;;;;3.10;2.00;;;;;;;16.87;85.89;96370.69;107867;1284;22527;-75
2023/07/31 03:56:35;;;;;;;1.90;1.70;;;;;;;16.89;85.67;96371.66;107863;1284;22510;-75
2023/07/31 03:59:05;;;;;;;2.90;1.80;;;;;;;16.89;85.69;96371.64;107820;1284;22535;-75
2023/07/31 04:01:36;;;;;;;3.00;2.10;;;;;;;16.92;85.80;96372.34;107858;1276;22591;-75
2023/07/31 04:04:08;;;;;;;3.50;1.70;;;;;;;16.96;85.79;96371.09;107874;1284;22665;-75
2023/07/31 04:06:39;;;;;;;2.70;1.70;;;;;;;17.00;85.89;96367.05;107867;1277;22546;-75
2023/07/31 04:09:10;;;;;;;2.00;1.60;;;;;;;17.03;85.75;96364.78;107826;1284;22524;-75
2023/07/31 04:11:41;;;;;;;1.90;1.70;;;;;;;17.05;85.71;96363.95;107838;1284;25904;-75
2023/07/31 04:14:12;;;;;;;2.30;1.40;;;;;;;17.08;85.70;96365.21;107874;1284;22530;-75
2023/07/31 04:16:44;;;;;;;1.70;1.40;;;;;;;17.10;85.39;96368.04;107852;1268;22525;-75
2023/07/31 04:19:16;;;;;;;2.90;1.70;;;;;;;17.12;85.32;96375.23;107795;1284;22556;-75
2023/07/31 04:21:47;;;;;;;3.00;1.80;;;;;;;17.16;85.19;96379.64;107865;1277;24266;-74
2023/07/31 04:24:24;;;;;;;3.20;2.50;;;;;;;17.19;85.16;96387.30;107837;1284;22562;-75
2023/07/31 04:26:56;;;;;;;2.30;2.10;;;;;;;17.24;85.41;96392.90;107907;1283;22527;-75
2023/07/31 04:29:27;;;;;;;2.50;1.60;;;;;;;17.29;85.42;96394.81;107883;1272;22526;-75
2023/07/31 04:31:58;;;;;;;2.30;1.60;;;;;;;17.31;85.25;96393.38;107864;1264;22531;-75
2023/07/31 04:34:29;;;;;;;1.80;1.60;;;;;;;17.32;85.17;96395.41;107858;1284;25334;-75
2023/07/31 04:37:00;;;;;;;2.00;1.80;;;;;;;17.32;85.26;96394.89;107870;1280;22540;-75
2023/07/31 04:39:31;;;;;;;2.20;2.00;;;;;;;17.31;84.95;96396.69;108004;1284;22731;-75
2023/07/31 04:42:03;;;;;;;2.30;1.40;;;;;;;17.29;85.21;96394.62;108027;1284;23291;-74
2023/07/31 04:44:34;;;;;;;2.70;1.60;;;;;;;17.33;85.36;96398.67;107996;1284;22558;-75
2023/07/31 04:47:06;;;;;;;2.50;1.60;;;;;;;17.38;85.29;96394.11;107868;1284;128286;-75
2023/07/31 04:49:37;;;;;;;3.00;1.60;;;;;;;17.40;84.73;96398.14;107903;1284;22578;-75
2023/07/31 04:52:08;;;;;;;2.80;1.50;;;;;;;17.39;84.43;96400.11;107959;1284;24263;-75
2023/07/31 04:54:39;;;;;;;1.80;1.60;;;;;;;17.36;84.36;96401.46;107902;1284;24240;-75
2023/07/31 04:57:11;;;;;;;2.10;1.30;;;;;;;17.33;84.07;96402.66;107890;1280;22524;-75
2023/07/31 04:59:42;;;;;;;4.20;1.40;;;;;;;17.33;84.05;96399.75;107854;1284;25437;-75
2023/07/31 05:02:14;;;;;;;2.10;1.50;;;;;;;17.30;83.81;96400.00;107839;1284;22531;-75
2023/07/31 05:04:46;;;;;;;1.60;1.40;;;;;;;17.27;83.69;96401.41;107826;1283;22618;-75
2023/07/31 05:07:18;;;;;;;2.50;1.70;;;;;;;17.23;83.50;96401.98;107838;1280;22520;-75
2023/07/31 05:09:49;;;;;;;2.30;1.50;;;;;;;17.19;83.28;96400.48;107828;1284;24137;-74
2023/07/31 05:12:20;;;;;;;2.40;1.80;;;;;;;17.17;83.38;96400.54;107845;1284;25344;-75
2023/07/31 05:14:51;;;;;;;1.70;1.40;;;;;;;17.15;83.40;96403.13;107830;1284;22577;-75
2023/07/31 05:17:22;;;;;;;1.70;1.30;;;;;;;17.13;83.27;96403.36;107803;1284;22599;-75
2023/07/31 05:19:53;;;;;;;2.80;1.70;;;;;;;17.12;83.24;96407.53;107794;1284;24224;-75
2023/07/31 05:22:24;;;;;;;2.00;1.40;;;;;;;17.13;83.22;96411.77;107838;1284;22557;-75
2023/07/31 05:24:55;;;;;;;2.40;1.60;;;;;;;17.10;83.04;96410.98;107828;1284;22529;-75
2023/07/31 05:27:26;;;;;;;1.90;1.70;;;;;;;17.07;83.04;96413.31;107852;1284;22547;-75
2023/07/31 05:29:58;;;;;;;2.10;1.70;;;;;;;17.03;83.06;96416.45;107835;1284;22538;-75
2023/07/31 05:32:29;;;;;;;2.70;1.40;;;;;;;17.00;83.13;96417.18;107838;1284;24240;-75
2023/07/31 05:35:00;;;;;;;2.50;1.50;;;;;;;16.97;83.14;96420.73;107845;1284;24259;-75
2023/07/31 05:37:32;;;;;;;2.60;1.70;;;;;;;16.94;83.23;96426.17;107843;1278;22527;-75
2023/07/31 05:40:04;;;;;;;2.60;1.90;;;;;;;16.91;83.49;96430.23;107830;1284;25293;-75
2023/07/31 05:42:37;;;;;;;4.40;2.10;;;;;;;16.95;83.65;96426.77;107825;1284;22632;-75
2023/07/31 05:45:11;;;;;;;2.30;2.10;;;;;;;16.95;83.63;96429.83;107841;1284;25409;-75
2023/07/31 05:47:42;;;;;;;2.30;2.00;;;;;;;16.94;83.70;96433.39;107842;1284;23125;-75
2023/07/31 05:50:14;;;;;;;2.90;2.10;;;;;;;16.96;83.99;96436.68;107830;1280;22532;-75
2023/07/31 05:52:45;;;;;;;2.70;2.40;;;;;;;16.99;84.03;96435.71;107913;1280;24253;-75
2023/07/31 05:55:16;;;;;;;3.40;2.60;;;;;;;17.02;84.16;96439.61;107843;1280;22590;-75
2023/07/31 05:57:47;;;;;;;3.20;2.60;;;;;;;17.03;84.16;96442.61;107840;1280;25564;-75
2023/07/31 06:00:19;;;;;;;3.20;2.90;;;;;;;17.00;84.06;96442.95;107809;1284;22530;-75
2023/07/31 06:02:50;;;;;;;3.60;3.00;;;;;;;16.96;84.04;96443.58;107854;1284;22525;-75
2023/07/31 06:05:21;;;;;;;3.40;3.00;;;;;;;16.95;84.17;96442.90;107846;1284;22514;-75
2023/07/31 06:07:52;;;;;;;3.80;3.40;;;;;;;16.97;84.21;96444.05;107833;1278;22527;-75
2023/07/31 06:10:25;;;;;;;4.20;3.80;;;;;;;16.99;84.07;96442.77;107800;1284;22657;-75
2023/07/31 06:12:57;;;;;;;6.10;4.40;;;;;;;16.99;84.08;96444.13;107863;1278;22539;-75
2023/07/31 06:15:28;;;;;;;5.80;4.00;;;;;;;16.97;84.00;96442.06;107955;1278;22571;-75
2023/07/31 06:18:01;;;;;;;5.20;4.60;;;;;;;16.97;84.18;96441.91;107945;1284;22533;-75
2023/07/31 06:20:33;;;;;;;4.60;4.20;;;;;;;17.07;84.68;96443.23;107835;1277;22582;-75
2023/07/31 06:23:04;;;;;;;5.40;4.50;;;;;;;17.18;84.75;96442.14;107820;1284;22582;-75
2023/07/31 06:25:37;;;;;;;5.00;4.50;;;;;;;17.23;84.32;96440.71;107805;1280;22649;-75
2023/07/31 06:28:09;;;;;;;5.10;4.60;;;;;;;17.23;84.24;96442.55;107872;1284;23562;-75
2023/07/31 06:30:40;;;;;;;4.50;3.90;;;;;;;17.20;83.95;96442.52;107820;1280;23425;-75
2023/07/31 06:33:12;;;;;;;5.50;4.30;;;;;;;17.17;84.06;96444.54;107831;1284;22538;-75
2023/07/31 06:35:43;;;;;;;5.20;4.10;;;;;;;17.18;84.04;96443.23;107823;1284;22535;-75
2023/07/31 06:38:15;;;;;;;5.40;4.50;;;;;;;17.19;84.12;96440.10;107811;1284;23865;-75
2023/07/31 06:40:46;;;;;;;4.70;4.10;;;;;;;17.17;83.98;96438.27;107796;1284;25484;-75
2023/07/31 06:43:17;;;;;;;5.70;4.80;;;;;;;17.16;84.07;96435.77;107805;1277;22528;-75
2023/07/31 06:45:51;;;;;;;5.10;4.60;;;;;;;17.18;84.03;96434.40;107832;1284;22537;-75
2023/07/31 06:48:22;;;;;;;5.50;4.40;;;;;;;17.16;84.02;96432.40;107810;1284;26506;-75
2023/07/31 06:50:54;;;;;;;4.70;4.30;;;;;;;17.19;84.35;96436.74;107865;1278;22966;-75
2023/07/31 06:53:25;;;;;;;4.20;3.80;;;;;;;17.24;84.36;96439.59;107833;1280;24274;-75
2023/07/31 06:55:57;;;;;;;5.60;4.40;;;;;;;17.24;84.28;96439.90;107839;1284;22610;-75
2023/07/31 06:58:28;;;;;;;5.20;4.70;;;;;;;17.26;84.25;96440.20;107811;1284;22531;-75
2023/07/31 07:00:59;;;;;;;5.10;4.60;;;;;;;17.25;84.11;96437.46;107804;1279;22529;-75
2023/07/31 07:03:32;;;;;;;4.90;4.40;;;;;;;17.31;84.46;96432.73;107823;1277;22607;-75
2023/07/31 07:06:03;;;;;;;4.40;3.70;;;;;;;17.49;84.71;96434.27;107828;1280;23065;-75
2023/07/31 07:08:35;;;;;;;4.90;4.10;;;;;;;17.66;84.40;96437.56;107804;1279;26480;-76
2023/07/31 07:11:06;;;;;;;5.00;3.70;;;;;;;17.76;84.31;96436.49;107844;1278;22549;-75
2023/07/31 07:13:37;;;;;;;5.80;3.90;;;;;;;17.81;83.85;96441.20;107833;1280;22583;-73
2023/07/31 07:16:08;;;;;;;4.70;4.20;;;;;;;17.75;83.46;96442.44;107809;1284;22572;-73
2023/07/31 07:18:39;;;;;;;4.60;3.60;;;;;;;17.68;83.28;96441.93;107788;1284;22593;-74
2023/07/31 07:21:14;;;;;;;3.60;3.30;;;;;;;17.60;83.20;96436.94;107842;1284;22637;-73
2023/07/31 07:23:45;;;;;;;3.80;3.40;;;;;;;17.55;83.30;96440.27;107827;1281;22619;-74
2023/07/31 07:26:17;;;;;;;4.70;3.90;;;;;;;17.55;83.50;96439.05;107859;1270;22527;-73
2023/07/31 07:28:48;;;;;;;5.30;3.50;;;;;;;17.57;83.69;96438.28;107788;1284;25378;-73
2023/07/31 07:31:19;;;;;;;5.90;3.60;;;;;;;17.61;83.78;96436.24;107860;1284;22531;-73
2023/07/31 07:33:50;;;;;;;4.10;3.10;;;;;;;17.70;83.97;96434.73;107835;1274;23596;-74
2023/07/31 07:36:21;;;;;;;4.20;3.40;;;;;;;17.86;83.80;96429.88;107822;1280;22568;-73
2023/07/31 07:38:52;;;;;;;5.40;3.20;;;;;;;18.23;84.48;96433.31;107811;1284;22538;-73
2023/07/31 07:41:24;;;;;;;3.50;3.20;;;;;;;18.88;83.81;96440.88;107823;1284;22524;-73
2023/07/31 07:43:55;;;;;;;4.30;3.20;;;;;;;19.27;82.88;96443.36;107843;1284;25390;-73
2023/07/31 07:46:26;;;;;;;3.80;2.80;;;;;;;19.56;81.64;96442.97;107829;1280;22534;-73
2023/07/31 07:48:57;;;;;;;4.20;2.80;;;;;;;19.57;80.74;96446.55;107847;1284;22533;-74
2023/07/31 07:51:30;;;;;;;2.60;2.30;;;;;;;19.70;80.36;96447.70;107816;1284;23010;-73
2023/07/31 07:54:01;;;;;;;3.80;2.80;;;;;;;19.59;79.15;96447.50;107842;1284;22548;-73
2023/07/31 07:56:36;;;;;;;4.60;2.70;;;;;;;19.28;78.78;96449.39;107838;1284;22686;-73
2023/07/31 07:59:07;;;;;;;2.60;2.20;;;;;;;19.01;79.15;96453.10;107792;1284;24392;-73
2023/07/31 08:01:38;;;;;;;3.80;3.10;;;;;;;18.74;78.86;96451.07;107835;1284;22649;-73
2023/07/31 08:04:09;;;;;;;4.80;3.40;;;;;;;18.44;78.98;96452.04;107838;1278;22538;-73
2023/07/31 08:06:40;;;;;;;4.60;4.00;;;;;;;18.25;79.38;96454.85;107803;1284;22562;-73
2023/07/31 08:09:12;;;;;;;5.00;3.70;;;;;;;18.11;79.53;96459.44;107840;1280;25417;-73
2023/07/31 08:11:43;;;;;;;4.90;4.10;;;;;;;17.97;79.48;96464.23;107807;1283;25700;-74
2023/07/31 08:14:14;;;;;;;4.60;4.10;;;;;;;17.91;79.87;96466.79;107836;1284;22538;-73
2023/07/31 08:16:45;;;;;;;4.00;3.50;;;;;;;17.96;80.22;96465.04;107840;1284;22527;-73
2023/07/31 08:19:16;;;;;;;4.50;3.90;;;;;;;18.01;80.04;96466.44;107786;1277;22530;-74
2023/07/31 08:21:48;;;;;;;5.60;4.30;;;;;;;18.14;80.03;96465.83;107828;1284;22567;-73
2023/07/31 08:24:19;;;;;;;8.20;5.70;;;;;;;18.22;79.77;96470.33;107830;1284;22598;-74
2023/07/31 08:26:50;;;;;;;27.80;17.60;;;;;;;18.26;79.42;96474.76;107835;1284;22554;-74
2023/07/31 08:29:21;;;;;;;43.60;28.90;;;;;;;18.27;79.20;96477.46;107800;1277;22728;-74
2023/07/31 08:31:52;;;;;;;35.00;23.00;;;;;;;18.32;79.26;96474.36;107824;1278;26458;-74
2023/07/31 08:34:23;;;;;;;6.20;4.50;;;;;;;18.35;79.04;96473.33;107803;1277;22654;-73
2023/07/31 08:36:54;;;;;;;4.50;2.70;;;;;;;18.34;78.79;96475.29;107840;1284;24279;-76
2023/07/31 08:39:25;;;;;;;4.30;3.20;;;;;;;18.32;78.43;96478.27;107825;1284;22526;-75
2023/07/31 08:42:00;;;;;;;3.30;2.70;;;;;;;18.30;78.47;96481.71;107863;1280;26434;-75
2023/07/31 08:44:33;;;;;;;6.20;3.50;;;;;;;18.33;78.71;96480.92;107834;1279;25037;-75
2023/07/31 08:47:05;;;;;;;4.00;3.10;;;;;;;18.38;78.37;96480.33;107840;1284;22526;-74
2023/07/31 08:49:38;;;;;;;3.90;3.20;;;;;;;18.41;78.32;96482.55;107874;1284;22529;-74
2023/07/31 08:52:11;;;;;;;3.40;3.10;;;;;;;18.46;78.19;96481.58;107848;1284;22542;-73
2023/07/31 08:54:42;;;;;;;4.00;2.70;;;;;;;18.53;78.35;96480.75;107849;1284;22540;-74
2023/07/31 08:57:14;;;;;;;4.30;2.50;;;;;;;18.64;78.04;96479.42;107855;1283;25284;-74
2023/07/31 08:59:47;;;;;;;4.30;2.90;;;;;;;18.66;77.53;96478.23;107816;1284;22555;-74
2023/07/31 09:02:20;;;;;;;3.70;2.80;;;;;;;18.78;77.14;96480.98;107851;1280;22482;-74
2023/07/31 09:04:52;;;;;;;3.70;2.70;;;;;;;18.89;76.95;96477.27;107815;1280;22931;-73
2023/07/31 09:07:25;;;;;;;4.90;2.60;;;;;;;19.05;76.64;96474.48;107851;1284;22615;-74
2023/07/31 09:09:56;;;;;;;5.20;2.60;;;;;;;19.21;75.77;96476.38;107813;1284;22659;-73
2023/07/31 09:12:28;;;;;;;5.50;2.80;;;;;;;19.31;74.75;96477.46;107821;1284;22551;-74
2023/07/31 09:14:59;;;;;;;4.90;2.80;;;;;;;19.40;73.90;96477.80;107830;1281;25289;-74
2023/07/31 09:17:34;;;;;;;4.70;2.60;;;;;;;19.45;73.32;96479.70;107817;1284;22536;-73
2023/07/31 09:20:18;;;;;;;3.80;2.70;;;;;;;19.63;72.99;96473.84;107789;1281;23880;-74
2023/07/31 09:22:50;;;;;;;5.90;3.00;;;;;;;19.81;72.59;96473.14;107841;1284;22537;-74
2023/07/31 09:25:22;;;;;;;6.00;3.00;;;;;;;19.96;72.34;96474.10;107816;1278;22527;-73
2023/07/31 09:27:55;;;;;;;4.70;2.60;;;;;;;20.13;72.23;96476.64;107811;1279;22515;-74
2023/07/31 09:30:26;;;;;;;4.10;2.50;;;;;;;20.14;71.46;96474.31;107812;1276;22654;-74
2023/07/31 09:33:06;;;;;;;4.00;2.40;;;;;;;20.07;70.86;96469.55;107856;1284;22538;-74
2023/07/31 09:35:40;;;;;;;4.60;2.50;;;;;;;19.95;70.40;96471.52;107855;1281;22530;-74
2023/07/31 09:38:12;;;;;;;4.70;2.50;;;;;;;19.86;70.17;96472.20;107815;1284;22530;-74
2023/07/31 09:40:45;;;;;;;4.80;2.60;;;;;;;19.72;70.06;96469.34;107823;1284;22680;-73
2023/07/31 09:43:20;;;;;;;4.10;2.50;;;;;;;19.74;70.92;96466.23;107819;1284;22616;-74
2023/07/31 09:45:58;;;;;;;4.50;2.80;;;;;;;19.90;70.69;96466.15;107820;1284;22582;-74
2023/07/31 09:48:30;;;;;;;4.90;2.60;;;;;;;19.95;70.52;96464.21;107884;1284;22583;-73
2023/07/31 09:51:08;;;;;;;3.50;2.60;;;;;;;20.06;70.42;96461.31;107845;1281;22658;-73
2023/07/31 09:53:39;;;;;;;3.00;2.00;;;;;;;20.21;70.19;96459.23;107830;1284;22533;-74
2023/07/31 09:56:10;;;;;;;5.90;2.80;;;;;;;20.27;69.56;96456.34;107855;1284;23719;-74
2023/07/31 09:58:41;;;;;;;7.40;2.30;;;;;;;20.39;69.94;96455.29;107824;1284;22538;-74
2023/07/31 10:01:13;;;;;;;4.20;2.30;;;;;;;20.64;69.39;96450.02;107849;1278;22637;-73
2023/07/31 10:03:46;;;;;;;3.30;2.10;;;;;;;20.79;68.55;96453.29;107839;1284;22584;-74
2023/07/31 10:06:19;;;;;;;3.90;1.80;;;;;;;20.69;67.37;96452.76;107887;1280;23127;-74
2023/07/31 10:08:52;;;;;;;5.00;2.00;;;;;;;20.62;67.02;96448.89;107816;1284;22538;-74
2023/07/31 10:11:26;;;;;;;4.00;2.00;;;;;;;20.70;67.42;96444.30;107880;1284;25462;-74
2023/07/31 10:13:58;;;;;;;3.80;1.80;;;;;;;20.69;66.57;96438.58;107844;1280;22568;-74
2023/07/31 10:16:29;;;;;;;4.90;2.20;;;;;;;20.69;66.25;96439.53;107819;1284;22567;-73
2023/07/31 10:19:02;;;;;;;3.10;1.80;;;;;;;20.82;66.66;96441.14;107843;1281;24648;-74
2023/07/31 10:21:35;;;;;;;3.10;1.90;;;;;;;20.98;66.15;96438.60;107958;1284;22547;-74
2023/07/31 10:24:09;;;;;;;5.50;3.00;;;;;;;21.10;65.87;96436.95;107938;1279;22541;-74
2023/07/31 10:26:42;;;;;;;3.00;1.90;;;;;;;21.31;65.61;96434.59;107945;1283;22542;-74
2023/07/31 10:29:14;;;;;;;4.40;2.00;;;;;;;21.48;65.14;96430.58;107899;1285;22654;-74
2023/07/31 10:31:47;;;;;;;2.10;1.90;;;;;;;21.65;65.39;96430.88;107795;1285;24218;-74
2023/07/31 10:34:19;;;;;;;3.30;2.10;;;;;;;21.72;64.20;96432.48;107793;1285;23936;-74
2023/07/31 10:36:50;;;;;;;4.60;2.20;;;;;;;21.56;63.52;96428.73;107825;1285;25436;-74
2023/07/31 10:39:41;;;;;;;3.00;1.90;;;;;;;21.37;63.41;96427.77;107771;1278;22543;-74
2023/07/31 10:42:16;;;;;;;5.30;2.00;;;;;;;21.48;63.29;96422.52;107760;1285;24217;-74
2023/07/31 10:44:49;;;;;;;3.70;1.80;;;;;;;21.58;62.72;96421.85;107780;1282;24575;-74
2023/07/31 10:47:21;;;;;;;2.70;1.80;;;;;;;21.42;62.04;96418.60;107815;1285;22533;-74
2023/07/31 10:49:52;;;;;;;3.90;2.20;;;;;;;21.42;62.05;96416.80;107780;1283;22530;-74
2023/07/31 10:52:26;;;;;;;3.70;2.00;;;;;;;21.33;62.38;96414.94;107783;1285;22530;-74
2023/07/31 10:55:27;;;;;;;3.40;2.20;;;;;;;21.53;63.85;96410.41;107759;1285;22550;-74
2023/07/31 10:58:06;;;;;;;4.60;2.10;;;;;;;21.85;63.39;96407.44;107785;1282;22546;-74
2023/07/31 11:00:40;;;;;;;3.20;1.90;;;;;;;21.75;61.97;96405.02;107807;1283;22579;-74
2023/07/31 11:03:12;;;;;;;4.30;2.30;;;;;;;21.83;62.06;96403.23;107820;1280;22662;-74
2023/07/31 11:05:50;;;;;;;3.80;2.00;;;;;;;21.90;61.52;96399.84;107791;1285;22549;-74
2023/07/31 11:08:23;;;;;;;5.20;2.60;;;;;;;21.98;61.18;96393.36;107810;1281;22539;-74
2023/07/31 11:11:08;;;;;;;5.20;2.30;;;;;;;22.14;61.31;96389.73;107788;1285;22650;-74
2023/07/31 11:13:45;;;;;;;3.50;2.30;;;;;;;22.36;62.42;96386.59;107818;1279;22534;-74
2023/07/31 11:16:18;;;;;;;3.70;2.10;;;;;;;22.48;61.25;96382.70;107809;1285;22544;-74
2023/07/31 11:18:51;;;;;;;5.50;2.40;;;;;;;22.53;60.70;96380.79;107724;1282;22532;-74
2023/07/31 11:21:23;;;;;;;3.20;2.10;;;;;;;22.55;60.19;96379.12;107839;1285;24231;-74
2023/07/31 11:23:57;;;;;;;4.00;2.40;;;;;;;22.66;60.19;96373.27;107787;1280;22520;-74
2023/07/31 11:26:28;;;;;;;4.30;2.50;;;;;;;22.74;60.06;96369.61;107845;1284;26585;-74
2023/07/31 11:29:00;;;;;;;3.20;2.20;;;;;;;22.78;60.02;96374.62;107741;1282;23554;-74
2023/07/31 11:31:39;;;;;;;3.90;2.10;;;;;;;22.74;59.45;96373.78;107811;1285;22816;-74
2023/07/31 11:34:11;;;;;;;4.40;2.50;;;;;;;22.71;59.59;96372.20;107829;1281;25330;-74
2023/07/31 11:36:42;;;;;;;4.60;2.20;;;;;;;22.81;59.50;96372.11;107805;1284;25336;-75
2023/07/31 11:39:13;;;;;;;3.50;2.20;;;;;;;22.85;59.46;96375.14;107784;1285;22556;-75
2023/07/31 11:41:44;;;;;;;3.00;2.10;;;;;;;22.77;58.56;96371.89;107797;1280;25922;-74
2023/07/31 11:44:16;;;;;;;4.70;2.40;;;;;;;22.73;58.27;96372.23;107798;1285;22542;-74
2023/07/31 11:46:48;;;;;;;3.40;2.20;;;;;;;22.79;58.25;96370.38;107797;1285;25358;-74